Time;durP1;ratioP1;P1;durP2;ratioP2;P2;SDS_P1;SDS_P2;PMS_P1;PMS_P2;Temp;Humidity;BMP_temperature;BMP_pressure;BME280_temperature;BME280_humidity;BME280_pressure;Samples;Min_cycle;Max_cycle;Signal;HPM_P1;HPM_P2
2021/06/19 00:00:35;;;;;;;10.07;9.15;;;;;;;;;;4367467;32;20046;-75
2021/06/19 00:03:02;;;;;;;10.55;9.45;;;;;;;;;;4365290;32;20110;-76
2021/06/19 00:05:28;;;;;;;10.63;9.55;;;;;;;;;;4367947;32;20085;-75
2021/06/19 00:07:55;;;;;;;10.40;9.43;;;;;;;;;;4364455;32;20062;-75
2021/06/19 00:10:21;;;;;;;10.77;9.80;;;;;;;;;;4341401;33;20043;-75
2021/06/19 00:12:48;;;;;;;10.05;9.15;;;;;;;;;;4356813;32;20069;-75
2021/06/19 00:15:15;;;;;;;11.55;8.82;;;;;;;;;;4352204;32;20417;-75
2021/06/19 00:17:41;;;;;;;8.65;7.82;;;;;;;;;;4365970;32;20055;-76
2021/06/19 00:20:09;;;;;;;11.15;7.75;;;;;;;;;;4350530;33;20384;-75
2021/06/19 00:22:35;;;;;;;8.60;7.82;;;;;;;;;;4363559;32;20074;-75
2021/06/19 00:25:01;;;;;;;8.25;7.50;;;;;;;;;;4368453;32;20474;-75
2021/06/19 00:27:28;;;;;;;16.20;8.05;;;;;;;;;;4356455;32;20415;-75
2021/06/19 00:29:54;;;;;;;10.25;7.97;;;;;;;;;;4354011;32;20075;-75
2021/06/19 00:32:20;;;;;;;13.52;7.80;;;;;;;;;;4353469;32;20088;-76
2021/06/19 00:34:46;;;;;;;9.45;8.02;;;;;;;;;;4353415;32;20031;-76
2021/06/19 00:37:13;;;;;;;8.57;7.87;;;;;;;;;;4353252;32;20058;-75
2021/06/19 00:39:39;;;;;;;8.55;7.70;;;;;;;;;;4366653;32;20027;-77
2021/06/19 00:42:05;;;;;;;8.32;7.62;;;;;;;;;;4368327;32;20035;-75
2021/06/19 00:44:32;;;;;;;8.60;7.72;;;;;;;;;;4355209;32;20119;-76
2021/06/19 00:46:58;;;;;;;11.35;8.55;;;;;;;;;;4367119;32;20039;-75
2021/06/19 00:49:25;;;;;;;9.98;8.00;;;;;;;;;;4367514;32;20662;-75
2021/06/19 00:51:51;;;;;;;10.95;8.48;;;;;;;;;;4367048;32;20027;-75
2021/06/19 00:54:18;;;;;;;12.05;9.75;;;;;;;;;;4367991;32;20051;-75
2021/06/19 00:56:45;;;;;;;17.20;9.27;;;;;;;;;;4365764;32;20127;-75
2021/06/19 00:59:11;;;;;;;22.15;10.05;;;;;;;;;;4352585;32;20441;-76
2021/06/19 01:01:37;;;;;;;9.65;8.68;;;;;;;;;;4357421;32;20058;-76
2021/06/19 01:04:04;;;;;;;19.08;9.20;;;;;;;;;;4369057;32;20109;-76
2021/06/19 01:06:32;;;;;;;9.00;8.18;;;;;;;;;;4365597;32;20038;-75
2021/06/19 01:08:58;;;;;;;8.52;7.87;;;;;;;;;;4367437;32;20074;-76
2021/06/19 01:11:25;;;;;;;8.93;8.00;;;;;;;;;;4366084;32;20035;-75
2021/06/19 01:13:52;;;;;;;9.10;8.30;;;;;;;;;;4363350;32;20121;-76
2021/06/19 01:16:18;;;;;;;14.18;9.65;;;;;;;;;;4359344;32;20578;-76
2021/06/19 01:18:45;;;;;;;9.95;9.02;;;;;;;;;;4363345;32;20423;-75
2021/06/19 01:21:15;;;;;;;9.10;8.20;;;;;;;;;;4364521;32;20027;-75
2021/06/19 01:23:42;;;;;;;10.13;8.45;;;;;;;;;;4366536;32;20050;-75
2021/06/19 01:26:08;;;;;;;9.85;8.95;;;;;;;;;;4363691;32;20027;-75
2021/06/19 01:28:35;;;;;;;10.38;9.38;;;;;;;;;;4367418;32;20047;-75
2021/06/19 01:31:01;;;;;;;9.10;8.20;;;;;;;;;;4366635;32;20114;-75
2021/06/19 01:33:27;;;;;;;9.57;8.48;;;;;;;;;;4368450;32;20063;-76
2021/06/19 01:35:53;;;;;;;9.05;8.27;;;;;;;;;;4364055;32;20116;-76
2021/06/19 01:38:19;;;;;;;10.88;8.75;;;;;;;;;;4362292;32;20117;-75
2021/06/19 01:40:45;;;;;;;9.32;8.52;;;;;;;;;;4360773;32;20035;-75
2021/06/19 01:43:11;;;;;;;9.13;8.23;;;;;;;;;;4362684;32;20492;-76
2021/06/19 01:45:38;;;;;;;9.00;8.10;;;;;;;;;;4358386;32;20519;-75
2021/06/19 01:48:05;;;;;;;9.40;8.48;;;;;;;;;;4365953;32;20031;-75
2021/06/19 01:50:32;;;;;;;9.57;8.38;;;;;;;;;;4355379;32;20065;-75
2021/06/19 01:52:59;;;;;;;9.55;8.73;;;;;;;;;;4359661;32;20070;-75
2021/06/19 01:55:25;;;;;;;9.82;9.02;;;;;;;;;;4358390;32;20639;-75
2021/06/19 01:57:52;;;;;;;9.40;8.70;;;;;;;;;;4357297;32;20074;-75
2021/06/19 02:00:23;;;;;;;9.43;8.43;;;;;;;;;;4359408;32;20035;-76
2021/06/19 02:02:50;;;;;;;9.73;8.75;;;;;;;;;;4363582;32;20655;-75
2021/06/19 02:05:17;;;;;;;9.88;8.50;;;;;;;;;;4361461;32;20024;-75
2021/06/19 02:07:47;;;;;;;9.38;8.50;;;;;;;;;;4363713;32;20066;-75
2021/06/19 02:10:13;;;;;;;8.73;7.93;;;;;;;;;;4363653;32;20458;-76
2021/06/19 02:12:40;;;;;;;8.93;8.13;;;;;;;;;;4359963;32;20376;-76
2021/06/19 02:15:06;;;;;;;8.82;8.02;;;;;;;;;;4354835;32;20390;-75
2021/06/19 02:17:33;;;;;;;9.65;7.85;;;;;;;;;;4358398;32;20096;-75
2021/06/19 02:19:59;;;;;;;8.90;8.10;;;;;;;;;;4359368;32;20054;-76
2021/06/19 02:22:25;;;;;;;9.30;8.35;;;;;;;;;;4364923;32;20093;-75
2021/06/19 02:24:51;;;;;;;9.00;8.10;;;;;;;;;;4362651;32;20051;-75
2021/06/19 02:27:18;;;;;;;9.45;8.65;;;;;;;;;;4357507;32;20043;-75
2021/06/19 02:29:45;;;;;;;9.00;8.05;;;;;;;;;;4361741;32;20062;-75
2021/06/19 02:32:11;;;;;;;8.70;7.90;;;;;;;;;;4360128;32;20129;-75
2021/06/19 02:34:37;;;;;;;8.73;8.02;;;;;;;;;;4361309;32;20051;-76
2021/06/19 02:37:03;;;;;;;10.73;8.23;;;;;;;;;;4359547;32;20075;-75
2021/06/19 02:39:30;;;;;;;8.50;7.65;;;;;;;;;;4362343;32;20054;-76
2021/06/19 02:41:56;;;;;;;10.32;7.80;;;;;;;;;;4357272;32;20057;-75
2021/06/19 02:44:22;;;;;;;8.05;7.22;;;;;;;;;;4363337;32;20749;-76
2021/06/19 02:46:49;;;;;;;8.90;8.00;;;;;;;;;;4353162;32;20035;-76
2021/06/19 02:49:15;;;;;;;8.98;8.15;;;;;;;;;;4349900;32;20502;-76
2021/06/19 02:51:41;;;;;;;8.52;7.82;;;;;;;;;;4357189;32;20088;-76
2021/06/19 02:54:08;;;;;;;8.52;7.82;;;;;;;;;;4359492;32;20518;-75
2021/06/19 02:56:34;;;;;;;7.53;6.87;;;;;;;;;;4346932;33;20435;-75
2021/06/19 02:59:00;;;;;;;8.65;7.57;;;;;;;;;;4357058;32;20573;-75
2021/06/19 03:01:26;;;;;;;7.57;6.97;;;;;;;;;;4360581;32;20638;-76
2021/06/19 03:03:52;;;;;;;7.80;7.20;;;;;;;;;;4359159;32;20137;-75
2021/06/19 03:06:19;;;;;;;7.80;7.20;;;;;;;;;;4366406;32;20077;-75
2021/06/19 03:08:45;;;;;;;8.27;7.57;;;;;;;;;;4365362;32;20399;-75
2021/06/19 03:11:12;;;;;;;7.75;7.05;;;;;;;;;;4365706;32;20356;-75
2021/06/19 03:13:38;;;;;;;8.50;7.05;;;;;;;;;;4364358;32;20077;-76
2021/06/19 03:16:04;;;;;;;8.07;7.37;;;;;;;;;;4366641;32;20080;-75
2021/06/19 03:18:30;;;;;;;8.52;7.53;;;;;;;;;;4366194;32;20043;-75
2021/06/19 03:20:56;;;;;;;8.57;7.70;;;;;;;;;;4365433;32;20027;-76
2021/06/19 03:23:22;;;;;;;7.70;7.10;;;;;;;;;;4365339;32;20061;-75
2021/06/19 03:25:49;;;;;;;8.13;7.15;;;;;;;;;;4365262;32;20035;-76
2021/06/19 03:28:15;;;;;;;7.30;6.68;;;;;;;;;;4366087;32;20403;-76
2021/06/19 03:30:44;;;;;;;7.47;6.70;;;;;;;;;;4364538;32;20656;-76
2021/06/19 03:33:11;;;;;;;6.65;6.05;;;;;;;;;;4365540;32;20048;-75
2021/06/19 03:35:37;;;;;;;7.07;6.37;;;;;;;;;;4356918;32;20407;-76
2021/06/19 03:38:05;;;;;;;7.18;6.57;;;;;;;;;;4364391;32;20062;-76
2021/06/19 03:40:32;;;;;;;9.30;6.80;;;;;;;;;;4351020;32;20048;-76
2021/06/19 03:42:58;;;;;;;7.10;6.07;;;;;;;;;;4365050;32;20196;-75
2021/06/19 03:45:26;;;;;;;8.88;6.75;;;;;;;;;;4365507;32;20038;-76
2021/06/19 03:47:56;;;;;;;9.90;7.53;;;;;;;;;;4364646;32;20089;-75
2021/06/19 03:50:23;;;;;;;11.48;6.85;;;;;;;;;;4364269;32;20097;-75
2021/06/19 03:52:49;;;;;;;8.10;6.80;;;;;;;;;;4352267;32;20061;-75
2021/06/19 03:55:16;;;;;;;8.55;7.72;;;;;;;;;;4365077;32;20050;-75
2021/06/19 03:57:42;;;;;;;8.05;7.35;;;;;;;;;;4364478;32;20026;-75
2021/06/19 04:00:09;;;;;;;9.75;7.57;;;;;;;;;;4365382;32;20061;-76
2021/06/19 04:02:36;;;;;;;9.45;8.05;;;;;;;;;;4363657;32;20549;-76
2021/06/19 04:05:02;;;;;;;8.98;8.07;;;;;;;;;;4344590;32;20126;-75
2021/06/19 04:07:28;;;;;;;10.63;8.02;;;;;;;;;;4363306;32;20034;-76
2021/06/19 04:09:55;;;;;;;8.90;8.10;;;;;;;;;;4364331;32;20110;-75
2021/06/19 04:12:21;;;;;;;8.77;7.97;;;;;;;;;;4364188;32;20458;-76
2021/06/19 04:14:48;;;;;;;8.18;7.47;;;;;;;;;;4364829;32;20061;-76
2021/06/19 04:17:14;;;;;;;10.43;7.97;;;;;;;;;;4359764;32;20058;-76
2021/06/19 04:19:41;;;;;;;8.73;7.95;;;;;;;;;;4363868;32;20058;-75
2021/06/19 04:22:07;;;;;;;25.75;13.62;;;;;;;;;;4365512;32;20456;-75
2021/06/19 04:24:34;;;;;;;10.63;9.20;;;;;;;;;;4364397;32;20161;-75
2021/06/19 04:27:01;;;;;;;9.88;8.88;;;;;;;;;;4362783;32;20080;-76
2021/06/19 04:29:29;;;;;;;11.20;10.02;;;;;;;;;;4365885;32;20441;-75
2021/06/19 04:31:56;;;;;;;13.95;11.75;;;;;;;;;;4364440;32;20107;-75
2021/06/19 04:34:22;;;;;;;17.37;12.90;;;;;;;;;;4363383;32;20027;-75
2021/06/19 04:36:49;;;;;;;24.10;14.80;;;;;;;;;;4342745;32;20466;-76
2021/06/19 04:39:15;;;;;;;12.88;11.48;;;;;;;;;;4364271;32;20530;-75
2021/06/19 04:46:58;;;;;;;16.17;9.93;;;;;;;;;;4364195;32;20100;-75
2021/06/19 04:49:24;;;;;;;11.80;10.63;;;;;;;;;;4365516;32;20027;-76
2021/06/19 04:51:51;;;;;;;11.15;9.88;;;;;;;;;;4366725;32;20081;-75
2021/06/19 04:54:17;;;;;;;13.32;11.82;;;;;;;;;;4366355;32;20435;-75
2021/06/19 04:56:43;;;;;;;13.43;12.05;;;;;;;;;;4367986;32;20703;-75
2021/06/19 04:59:09;;;;;;;14.10;12.70;;;;;;;;;;4367241;32;20043;-75
2021/06/19 05:01:35;;;;;;;16.27;12.57;;;;;;;;;;4368243;32;20118;-75
2021/06/19 05:04:01;;;;;;;12.60;11.35;;;;;;;;;;4365689;32;20101;-75
2021/06/19 05:06:31;;;;;;;14.52;13.02;;;;;;;;;;4367034;32;20030;-76
2021/06/19 05:08:57;;;;;;;14.55;11.38;;;;;;;;;;4368337;32;20653;-75
2021/06/19 05:11:23;;;;;;;13.75;12.37;;;;;;;;;;4346223;32;20122;-75
2021/06/19 05:13:50;;;;;;;17.12;12.27;;;;;;;;;;4366560;32;20142;-76
2021/06/19 05:16:16;;;;;;;13.55;12.23;;;;;;;;;;4366210;32;20117;-76
2021/06/19 05:18:42;;;;;;;13.82;12.52;;;;;;;;;;4366263;32;20490;-76
2021/06/19 05:21:08;;;;;;;12.05;11.05;;;;;;;;;;4367444;32;20343;-73
2021/06/19 05:23:34;;;;;;;13.88;12.23;;;;;;;;;;4367310;32;20058;-73
2021/06/19 05:26:00;;;;;;;14.20;12.10;;;;;;;;;;4366424;32;20092;-73
2021/06/19 05:28:27;;;;;;;15.13;11.88;;;;;;;;;;4367798;32;20053;-72
2021/06/19 05:30:53;;;;;;;13.85;11.70;;;;;;;;;;4366775;32;20104;-73
2021/06/19 05:33:19;;;;;;;14.55;11.00;;;;;;;;;;4367669;32;20690;-73
2021/06/19 05:35:45;;;;;;;15.32;11.50;;;;;;;;;;4363719;32;20088;-74
2021/06/19 05:38:11;;;;;;;11.80;10.23;;;;;;;;;;4366796;32;20389;-74
2021/06/19 05:40:38;;;;;;;15.35;11.55;;;;;;;;;;4366232;32;20134;-74
2021/06/19 05:43:04;;;;;;;10.02;9.10;;;;;;;;;;4365827;32;20117;-73
2021/06/19 05:45:30;;;;;;;11.70;10.43;;;;;;;;;;4361445;32;20046;-74
2021/06/19 05:47:56;;;;;;;9.55;8.27;;;;;;;;;;4364255;32;20097;-74
2021/06/19 05:50:22;;;;;;;10.15;8.05;;;;;;;;;;4365394;32;20054;-74
2021/06/19 05:52:48;;;;;;;24.45;15.82;;;;;;;;;;4366429;32;20031;-73
2021/06/19 05:55:15;;;;;;;23.58;15.85;;;;;;;;;;4365608;32;20027;-74
2021/06/19 05:57:41;;;;;;;18.42;10.80;;;;;;;;;;4365156;32;20031;-74
2021/06/19 06:00:08;;;;;;;12.05;10.50;;;;;;;;;;4364016;32;20042;-75
2021/06/19 06:02:34;;;;;;;11.95;8.90;;;;;;;;;;4365966;32;20054;-73
2021/06/19 06:05:00;;;;;;;8.95;8.15;;;;;;;;;;4365650;32;20060;-73
2021/06/19 06:07:26;;;;;;;9.13;7.37;;;;;;;;;;4351470;32;20096;-74
2021/06/19 06:09:52;;;;;;;17.42;12.40;;;;;;;;;;4361117;32;20074;-73
2021/06/19 06:12:18;;;;;;;10.55;9.10;;;;;;;;;;4365157;32;20062;-75
2021/06/19 06:14:44;;;;;;;8.30;7.25;;;;;;;;;;4366055;32;20538;-74
2021/06/19 06:17:11;;;;;;;10.73;9.27;;;;;;;;;;4365806;32;20078;-75
2021/06/19 06:19:37;;;;;;;14.40;11.65;;;;;;;;;;4365737;32;20061;-73
2021/06/19 06:22:04;;;;;;;13.10;10.45;;;;;;;;;;4363885;32;20053;-74
2021/06/19 06:24:30;;;;;;;12.90;9.35;;;;;;;;;;4364307;32;20031;-76
2021/06/19 06:26:56;;;;;;;11.15;8.55;;;;;;;;;;4365270;32;20024;-77
2021/06/19 06:29:23;;;;;;;11.02;8.63;;;;;;;;;;4364636;32;20639;-75
2021/06/19 06:31:52;;;;;;;11.70;8.93;;;;;;;;;;4353884;32;20413;-74
2021/06/19 06:34:19;;;;;;;11.10;8.50;;;;;;;;;;4343674;32;20076;-74
2021/06/19 06:36:45;;;;;;;8.93;8.05;;;;;;;;;;4344521;32;20031;-75
2021/06/19 06:39:12;;;;;;;8.98;7.80;;;;;;;;;;4367135;32;20082;-74
2021/06/19 06:41:38;;;;;;;11.88;8.23;;;;;;;;;;4364672;32;20479;-75
2021/06/19 06:44:04;;;;;;;10.98;8.63;;;;;;;;;;4366064;32;20100;-76
2021/06/19 06:46:30;;;;;;;13.88;11.88;;;;;;;;;;4364984;32;20054;-75
2021/06/19 06:48:56;;;;;;;10.23;8.70;;;;;;;;;;4365369;32;20059;-74
2021/06/19 06:51:23;;;;;;;7.28;6.57;;;;;;;;;;4356953;32;20140;-74
2021/06/19 06:53:49;;;;;;;8.30;7.50;;;;;;;;;;4364511;32;20035;-74
2021/06/19 06:56:15;;;;;;;9.30;8.13;;;;;;;;;;4350271;32;20055;-76
2021/06/19 06:58:42;;;;;;;14.43;11.65;;;;;;;;;;4366364;32;20034;-76
2021/06/19 07:01:08;;;;;;;15.68;10.63;;;;;;;;;;4366756;32;20031;-77
2021/06/19 07:03:34;;;;;;;11.88;8.55;;;;;;;;;;4342904;32;20088;-74
2021/06/19 07:06:01;;;;;;;12.05;8.88;;;;;;;;;;4364530;32;20046;-74
2021/06/19 07:08:27;;;;;;;10.43;9.27;;;;;;;;;;4365700;32;20066;-77
2021/06/19 07:10:54;;;;;;;10.00;9.00;;;;;;;;;;4365046;32;20680;-75
2021/06/19 07:13:20;;;;;;;9.98;7.07;;;;;;;;;;4364783;32;20077;-75
2021/06/19 07:15:46;;;;;;;7.75;7.05;;;;;;;;;;4363761;32;20043;-76
2021/06/19 07:18:13;;;;;;;8.27;7.30;;;;;;;;;;4365853;32;20047;-76
2021/06/19 07:20:39;;;;;;;8.52;7.57;;;;;;;;;;4363381;32;20027;-75
2021/06/19 07:23:05;;;;;;;8.80;7.90;;;;;;;;;;4364762;32;20769;-75
2021/06/19 07:25:31;;;;;;;10.65;8.25;;;;;;;;;;4364286;32;20043;-79
2021/06/19 07:27:59;;;;;;;11.35;7.95;;;;;;;;;;4345816;32;20474;-79
2021/06/19 07:30:26;;;;;;;7.32;6.72;;;;;;;;;;4361662;32;20070;-77
2021/06/19 07:32:55;;;;;;;8.80;7.60;;;;;;;;;;4351300;32;20059;-78
2021/06/19 07:35:22;;;;;;;9.13;8.20;;;;;;;;;;4356379;32;20062;-77
2021/06/19 07:37:48;;;;;;;14.05;8.70;;;;;;;;;;4362810;32;20385;-78
2021/06/19 07:40:15;;;;;;;11.73;8.40;;;;;;;;;;4363441;32;20034;-80
2021/06/19 07:42:41;;;;;;;7.25;6.65;;;;;;;;;;4341257;32;20043;-78
2021/06/19 07:45:08;;;;;;;8.30;7.50;;;;;;;;;;4364926;32;20416;-79
2021/06/19 07:47:34;;;;;;;10.18;7.90;;;;;;;;;;4340687;33;20486;-78
2021/06/19 07:50:01;;;;;;;7.15;6.50;;;;;;;;;;4363820;32;20126;-78
2021/06/19 07:52:27;;;;;;;9.10;8.20;;;;;;;;;;4341513;32;20122;-77
2021/06/19 07:54:53;;;;;;;8.02;7.22;;;;;;;;;;4364077;32;20330;-78
2021/06/19 07:57:20;;;;;;;9.55;8.30;;;;;;;;;;4365600;32;20093;-78
2021/06/19 07:59:46;;;;;;;11.32;7.82;;;;;;;;;;4364931;32;20027;-78
2021/06/19 08:02:12;;;;;;;8.98;6.55;;;;;;;;;;4364270;32;20057;-77
2021/06/19 08:04:38;;;;;;;8.55;7.15;;;;;;;;;;4363581;32;20031;-78
2021/06/19 08:07:05;;;;;;;8.13;6.85;;;;;;;;;;4365473;32;20105;-77
2021/06/19 08:09:31;;;;;;;7.57;6.80;;;;;;;;;;4364122;32;20468;-78
2021/06/19 08:11:58;;;;;;;12.37;7.78;;;;;;;;;;4358496;32;150538;-77
2021/06/19 08:14:24;;;;;;;10.25;8.27;;;;;;;;;;4350370;32;20123;-78
2021/06/19 08:16:53;;;;;;;9.02;8.00;;;;;;;;;;4363942;32;20058;-78
2021/06/19 08:19:20;;;;;;;8.05;7.25;;;;;;;;;;4365368;32;20035;-78
2021/06/19 08:21:46;;;;;;;7.78;7.07;;;;;;;;;;4364978;32;20027;-77
2021/06/19 08:24:12;;;;;;;8.18;6.60;;;;;;;;;;4365802;32;20701;-78
2021/06/19 08:26:39;;;;;;;8.50;7.50;;;;;;;;;;4362886;32;20031;-77
2021/06/19 08:29:06;;;;;;;9.95;7.78;;;;;;;;;;4363723;32;20054;-78
2021/06/19 08:31:38;;;;;;;8.15;7.37;;;;;;;;;;4366019;32;20500;-77
2021/06/19 08:34:05;;;;;;;9.70;7.28;;;;;;;;;;4363680;32;20204;-78
2021/06/19 08:36:31;;;;;;;8.82;7.65;;;;;;;;;;4355572;32;20027;-78
2021/06/19 08:38:58;;;;;;;9.13;7.97;;;;;;;;;;4363124;32;20054;-78
2021/06/19 08:41:25;;;;;;;8.55;7.82;;;;;;;;;;4351706;32;20081;-79
2021/06/19 08:43:51;;;;;;;8.55;7.75;;;;;;;;;;4365687;32;20140;-79
2021/06/19 08:46:21;;;;;;;7.80;7.10;;;;;;;;;;4364035;32;20023;-79
2021/06/19 08:48:52;;;;;;;7.68;7.03;;;;;;;;;;4365712;32;20479;-78
2021/06/19 08:51:22;;;;;;;7.87;7.20;;;;;;;;;;4365544;32;20030;-78
2021/06/19 08:53:49;;;;;;;8.65;7.70;;;;;;;;;;4365906;32;20062;-78
2021/06/19 08:56:17;;;;;;;8.25;7.45;;;;;;;;;;4362694;32;20411;-78
2021/06/19 08:58:43;;;;;;;8.55;7.72;;;;;;;;;;4364871;32;20039;-77
2021/06/19 09:01:09;;;;;;;10.20;8.00;;;;;;;;;;4364644;32;20051;-78
2021/06/19 09:03:36;;;;;;;9.80;7.90;;;;;;;;;;4364364;32;20145;-79
2021/06/19 09:06:18;;;;;;;7.40;6.75;;;;;;;;;;4364482;32;20027;-78
2021/06/19 09:09:00;;;;;;;12.90;8.85;;;;;;;;;;4349766;32;20725;-78
2021/06/19 09:11:46;;;;;;;11.82;8.00;;;;;;;;;;4365081;32;20035;-78
2021/06/19 09:14:16;;;;;;;8.20;7.40;;;;;;;;;;4347639;33;20146;-78
2021/06/19 09:16:44;;;;;;;8.63;7.75;;;;;;;;;;4349792;32;20042;-78
2021/06/19 09:19:45;;;;;;;8.60;7.87;;;;;;;;;;4364907;32;20062;-78
2021/06/19 09:22:13;;;;;;;7.80;7.10;;;;;;;;;;4331862;33;20078;-77
2021/06/19 09:24:42;;;;;;;8.18;7.28;;;;;;;;;;4356729;32;20059;-74
2021/06/19 09:27:27;;;;;;;7.80;7.05;;;;;;;;;;4364131;32;20039;-77
2021/06/19 09:30:05;;;;;;;8.75;6.95;;;;;;;;;;4364445;32;20089;-78
2021/06/19 09:32:31;;;;;;;9.65;7.53;;;;;;;;;;4364044;32;20082;-79
2021/06/19 09:35:17;;;;;;;8.32;7.70;;;;;;;;;;4357321;32;20047;-79
2021/06/19 09:37:45;;;;;;;8.90;7.43;;;;;;;;;;4363457;32;20046;-79
2021/06/19 09:40:30;;;;;;;7.87;7.07;;;;;;;;;;4366574;32;20039;-80
2021/06/19 09:43:07;;;;;;;10.10;7.07;;;;;;;;;;4348693;33;20108;-76
2021/06/19 09:45:33;;;;;;;8.10;7.22;;;;;;;;;;4337450;32;20043;-79
2021/06/19 09:48:00;;;;;;;7.37;6.68;;;;;;;;;;4347153;32;20069;-85
2021/06/19 09:50:26;;;;;;;8.68;6.32;;;;;;;;;;4350528;32;20043;-81
2021/06/19 09:52:52;;;;;;;7.90;7.10;;;;;;;;;;4358610;32;20030;-81
2021/06/19 09:55:20;;;;;;;7.00;6.40;;;;;;;;;;4365696;32;20039;-80
2021/06/19 09:57:49;;;;;;;8.27;7.47;;;;;;;;;;4337060;32;20047;-80
2021/06/19 10:00:20;;;;;;;7.37;6.68;;;;;;;;;;4354570;32;20117;-80
2021/06/19 10:02:47;;;;;;;7.28;6.65;;;;;;;;;;4356617;32;20035;-81
2021/06/19 10:05:13;;;;;;;7.00;6.32;;;;;;;;;;4346471;32;20074;-80
2021/06/19 10:07:40;;;;;;;8.70;6.80;;;;;;;;;;4345763;32;20077;-80
2021/06/19 10:10:08;;;;;;;7.15;6.07;;;;;;;;;;4346794;32;20414;-82
2021/06/19 10:12:35;;;;;;;7.43;6.72;;;;;;;;;;4336833;33;20090;-79
2021/06/19 10:15:08;;;;;;;7.12;6.45;;;;;;;;;;4363025;32;20180;-82
2021/06/19 10:17:35;;;;;;;6.87;6.28;;;;;;;;;;4347543;32;20129;-82
2021/06/19 10:20:03;;;;;;;6.90;6.20;;;;;;;;;;4363772;32;20292;-80
2021/06/19 10:22:33;;;;;;;6.82;6.22;;;;;;;;;;4364014;32;20420;-78
2021/06/19 10:25:02;;;;;;;8.70;5.68;;;;;;;;;;4365234;32;20773;-80
2021/06/19 10:27:32;;;;;;;7.57;6.22;;;;;;;;;;4340328;32;20043;-81
2021/06/19 10:29:59;;;;;;;6.50;5.85;;;;;;;;;;4345026;32;20074;-80
2021/06/19 10:32:42;;;;;;;6.55;5.50;;;;;;;;;;4347921;32;20094;-81
2021/06/19 10:35:09;;;;;;;7.15;6.40;;;;;;;;;;4343563;32;20071;-82
2021/06/19 10:37:37;;;;;;;6.50;5.78;;;;;;;;;;4358301;32;20067;-83
2021/06/19 10:40:25;;;;;;;5.93;5.40;;;;;;;;;;4364526;32;20065;-82
2021/06/19 10:42:53;;;;;;;6.50;5.40;;;;;;;;;;4346795;32;20485;-82
2021/06/19 10:45:25;;;;;;;9.52;6.03;;;;;;;;;;4359385;32;20626;-83
2021/06/19 10:54:15;;;;;;;5.93;5.40;;;;;;;;;;4346455;32;20086;-79
2021/06/19 10:56:44;;;;;;;6.28;5.68;;;;;;;;;;4363981;32;20043;-80
2021/06/19 10:59:28;;;;;;;5.60;5.20;;;;;;;;;;4364744;32;20065;-79
2021/06/19 11:01:55;;;;;;;4.90;4.50;;;;;;;;;;4351420;32;20086;-79
2021/06/19 11:04:39;;;;;;;6.20;5.53;;;;;;;;;;4364978;32;20503;-78
2021/06/19 11:07:11;;;;;;;5.97;5.47;;;;;;;;;;4353094;32;20043;-77
2021/06/19 11:09:40;;;;;;;5.85;5.30;;;;;;;;;;4364261;32;20154;-79
2021/06/19 11:12:09;;;;;;;6.85;5.72;;;;;;;;;;4364163;32;20110;-78
2021/06/19 11:14:52;;;;;;;8.18;5.80;;;;;;;;;;4364538;32;20038;-77
2021/06/19 11:17:18;;;;;;;5.80;5.20;;;;;;;;;;4363116;32;20070;-77
2021/06/19 11:19:48;;;;;;;6.32;5.72;;;;;;;;;;4348180;33;20117;-77
2021/06/19 11:22:26;;;;;;;5.53;5.13;;;;;;;;;;4363789;32;20410;-77
2021/06/19 11:25:26;;;;;;;6.57;5.93;;;;;;;;;;4363315;32;20123;-77
2021/06/19 11:27:52;;;;;;;6.78;5.45;;;;;;;;;;4323975;33;20049;-77
2021/06/19 11:30:30;;;;;;;6.35;5.85;;;;;;;;;;4361577;32;20058;-77
2021/06/19 11:33:16;;;;;;;6.53;6.03;;;;;;;;;;4347709;32;20043;-77
2021/06/19 11:35:46;;;;;;;5.15;4.75;;;;;;;;;;4351547;32;20039;-78
2021/06/19 11:38:13;;;;;;;5.43;4.93;;;;;;;;;;4350860;32;20046;-78
2021/06/19 11:40:39;;;;;;;8.57;6.03;;;;;;;;;;4364174;32;20108;-77
2021/06/19 11:43:07;;;;;;;6.68;6.07;;;;;;;;;;4350681;32;20494;-78
2021/06/19 11:45:37;;;;;;;5.40;5.00;;;;;;;;;;4348428;32;20583;-79
2021/06/19 11:48:04;;;;;;;5.90;5.40;;;;;;;;;;4341446;32;20675;-77
2021/06/19 11:50:37;;;;;;;6.95;5.70;;;;;;;;;;4363109;32;20446;-80
2021/06/19 11:53:22;;;;;;;6.82;6.20;;;;;;;;;;4364448;32;20092;-79
2021/06/19 11:55:48;;;;;;;13.95;6.32;;;;;;;;;;4362753;32;20112;-78
2021/06/19 11:58:14;;;;;;;8.27;5.62;;;;;;;;;;4364004;32;20116;-78
2021/06/19 12:00:58;;;;;;;6.15;5.50;;;;;;;;;;4363615;32;20043;-78
2021/06/19 12:03:25;;;;;;;6.03;5.62;;;;;;;;;;4362478;32;20114;-78
2021/06/19 12:05:52;;;;;;;5.93;5.43;;;;;;;;;;4362880;32;20047;-76
2021/06/19 12:08:25;;;;;;;6.03;5.43;;;;;;;;;;4363171;32;20031;-80
2021/06/19 12:11:20;;;;;;;5.65;5.05;;;;;;;;;;4344259;32;20101;-83
2021/06/19 12:13:48;;;;;;;11.07;5.80;;;;;;;;;;4362085;32;20052;-81
2021/06/19 12:16:19;;;;;;;7.18;5.18;;;;;;;;;;4363991;32;20568;-81
2021/06/19 12:18:48;;;;;;;4.87;4.47;;;;;;;;;;4339101;32;20035;-81
2021/06/19 12:21:17;;;;;;;7.37;5.55;;;;;;;;;;4344310;32;20124;-81
2021/06/19 12:23:46;;;;;;;5.85;5.45;;;;;;;;;;4348812;32;20174;-81
2021/06/19 12:26:16;;;;;;;7.22;5.07;;;;;;;;;;4346602;32;20043;-81
2021/06/19 12:28:53;;;;;;;7.37;5.45;;;;;;;;;;4348545;32;20044;-81
2021/06/19 12:31:25;;;;;;;5.22;4.72;;;;;;;;;;4342876;32;20046;-82
2021/06/19 12:34:01;;;;;;;7.32;6.10;;;;;;;;;;4349004;32;20063;-81
2021/06/19 12:36:28;;;;;;;7.87;5.62;;;;;;;;;;4348595;32;20051;-82
2021/06/19 12:38:55;;;;;;;5.55;5.05;;;;;;;;;;4347024;32;20532;-80
2021/06/19 12:41:53;;;;;;;6.53;5.85;;;;;;;;;;4348251;32;20043;-82
2021/06/19 12:44:30;;;;;;;7.03;5.60;;;;;;;;;;4360466;32;20042;-82
2021/06/19 12:47:22;;;;;;;6.40;5.90;;;;;;;;;;4343094;32;20047;-81
2021/06/19 12:49:58;;;;;;;6.22;5.45;;;;;;;;;;4345218;33;20447;-81
2021/06/19 12:52:24;;;;;;;6.05;5.53;;;;;;;;;;4348914;32;20108;-82
2021/06/19 12:55:10;;;;;;;5.85;5.35;;;;;;;;;;4344047;33;20367;-82
2021/06/19 12:57:36;;;;;;;6.28;5.60;;;;;;;;;;4347501;32;20050;-80
2021/06/19 13:00:05;;;;;;;6.97;5.68;;;;;;;;;;4343729;33;20117;-81
2021/06/19 13:02:32;;;;;;;6.75;5.47;;;;;;;;;;4346186;32;20044;-82
2021/06/19 13:04:58;;;;;;;5.82;5.32;;;;;;;;;;4345214;32;20069;-80
2021/06/19 13:07:29;;;;;;;6.40;5.80;;;;;;;;;;4347288;33;20104;-81
2021/06/19 13:09:55;;;;;;;7.40;5.65;;;;;;;;;;4335799;32;20423;-81
2021/06/19 13:12:23;;;;;;;5.47;4.97;;;;;;;;;;4363349;32;20103;-81
2021/06/19 13:15:26;;;;;;;6.35;4.85;;;;;;;;;;4365763;32;20039;-81
2021/06/19 13:17:51;;;;;;;5.72;5.12;;;;;;;;;;4357944;32;20062;-81
2021/06/19 13:20:37;;;;;;;5.80;5.30;;;;;;;;;;4345075;32;20536;-81
2021/06/19 13:23:11;;;;;;;6.15;5.40;;;;;;;;;;4366403;32;20123;-81
2021/06/19 13:25:52;;;;;;;7.28;5.45;;;;;;;;;;4343109;32;20047;-81
2021/06/19 13:28:18;;;;;;;;;;;;;;;;;;4345928;32;20421;-81
2021/06/19 13:30:45;;;;;;;5.68;5.18;;;;;;;;;;4351960;32;20311;-81
2021/06/19 13:33:11;;;;;;;8.45;4.80;;;;;;;;;;4346282;33;20046;-80
2021/06/19 13:35:50;;;;;;;5.85;5.35;;;;;;;;;;4340739;32;20577;-81
2021/06/19 13:38:16;;;;;;;5.35;4.87;;;;;;;;;;4357371;32;20047;-81
2021/06/19 13:40:53;;;;;;;;;;;;;;;;;;;;;
2021/06/19 13:43:21;;;;;;;5.45;4.93;;;;;;;;;;4355177;32;20090;-82
2021/06/19 13:45:49;;;;;;;7.15;4.78;;;;;;;;;;4366432;32;20061;-81
2021/06/19 13:48:16;;;;;;;5.50;5.00;;;;;;;;;;4351936;32;20058;-82
2021/06/19 13:50:42;;;;;;;4.93;4.53;;;;;;;;;;4350996;32;20051;-80
2021/06/19 13:53:09;;;;;;;5.70;4.80;;;;;;;;;;4352129;32;20057;-80
2021/06/19 13:55:35;;;;;;;6.35;5.00;;;;;;;;;;4352362;32;20105;-81
2021/06/19 13:58:01;;;;;;;5.50;4.40;;;;;;;;;;4352190;32;20036;-81
2021/06/19 14:00:29;;;;;;;7.05;4.90;;;;;;;;;;4351172;32;20038;-80
2021/06/19 14:02:55;;;;;;;6.10;4.95;;;;;;;;;;4352066;32;20057;-81
2021/06/19 14:05:24;;;;;;;4.72;4.30;;;;;;;;;;4352298;32;20084;-81
2021/06/19 14:07:52;;;;;;;5.85;5.32;;;;;;;;;;4351980;32;20461;-81
2021/06/19 14:10:19;;;;;;;5.85;5.35;;;;;;;;;;4350093;32;20741;-82
2021/06/19 14:12:47;;;;;;;5.03;4.62;;;;;;;;;;4349160;32;20071;-80
2021/06/19 14:15:14;;;;;;;6.53;5.55;;;;;;;;;;4363251;32;20092;-80
2021/06/19 14:17:41;;;;;;;6.53;5.97;;;;;;;;;;4349674;32;20054;-80
2021/06/19 14:20:07;;;;;;;6.00;5.40;;;;;;;;;;4350508;32;20031;-80
2021/06/19 14:22:33;;;;;;;6.05;5.55;;;;;;;;;;4349675;32;20031;-80
2021/06/19 14:25:00;;;;;;;6.57;6.03;;;;;;;;;;4363845;32;20049;-80
2021/06/19 14:27:26;;;;;;;5.60;5.10;;;;;;;;;;4346826;32;20015;-80
2021/06/19 14:29:59;;;;;;;6.00;5.40;;;;;;;;;;4362174;32;20540;-81
2021/06/19 14:32:37;;;;;;;;;;;;;;;;;;;;;
2021/06/19 14:35:04;;;;;;;5.57;5.07;;;;;;;;;;4361312;32;20038;-80
2021/06/19 14:37:30;;;;;;;5.97;5.47;;;;;;;;;;4365081;32;20058;-81
2021/06/19 14:39:56;;;;;;;6.72;5.93;;;;;;;;;;4349318;32;20047;-81
2021/06/19 14:42:23;;;;;;;5.62;5.10;;;;;;;;;;4364785;32;20035;-81
2021/06/19 14:44:49;;;;;;;7.15;5.22;;;;;;;;;;4342863;33;20039;-81
2021/06/19 14:47:23;;;;;;;6.47;5.87;;;;;;;;;;4350746;32;20071;-82
2021/06/19 14:52:49;;;;;;;5.57;5.07;;;;;;;;;;4363749;32;20116;-82
2021/06/19 14:58:32;;;;;;;6.62;5.93;;;;;;;;;;4320093;32;20043;-74
2021/06/19 15:00:58;;;;;;;6.78;5.22;;;;;;;;;;4364013;32;20094;-74
2021/06/19 15:03:24;;;;;;;6.22;5.40;;;;;;;;;;4364736;32;20057;-79
2021/06/19 15:05:57;;;;;;;7.30;5.37;;;;;;;;;;4363903;32;20038;-78